Latest Weather Observations for Marble Bar

IDW60801

Issued at 5:32 pm WST Monday 8 February 2016 (issued every 30 minutes, with the page automatically refreshed every 10 minutes)

About weather observations | Map of weather stations | Latest weather observations for WA | Other Formats
Station Details ID: 004106 Name: MARBLE BAR Lat: -21.18 Lon: 119.75 Height: 182.3 m
Data from the previous 72 hours. | See also: Recent months at Marble Bar
Date/Time
WST
Temp
°C
App
Temp
°C
Dew
Point
Rel
Hum
%
Delta-T
°C
Wind Press
QNH
hPa
Press
MSL
hPa
Rain
since 9 am
mm
Dir
 
Spd
km/h
Gust
km/h
Spd
kts
Gust
kts
08/05:30pm 41.2 35.5 0.4 8 21.2 ESE 20 32 11 17 1007.9 1006.3 -
08/05:00pm 41.4 35.9 0.5 8 21.4 E 19 28 10 15 1007.7 1006.1 -
08/04:30pm 41.9 36.3 0.9 8 21.5 ESE 20 33 11 18 1007.6 1006.0 -
08/04:00pm 41.6 36.1 0.7 8 21.4 E 19 33 10 18 1007.8 1006.2 -
08/03:30pm 42.0 36.0 1.0 8 21.6 SE 22 37 12 20 1007.9 1006.3 -
08/03:00pm 41.9 37.5 2.6 9 21.2 E 15 30 8 16 1008.2 1006.6 -
08/02:30pm 41.9 37.1 2.6 9 21.2 E 17 30 9 16 1008.5 1006.9 -
08/02:00pm 41.8 36.4 2.5 9 21.2 E 20 30 11 16 1008.8 1007.3 -
08/01:30pm 41.4 35.6 2.2 9 20.9 ESE 22 43 12 23 1009.1 1007.6 -
08/01:00pm 41.4 35.5 3.7 10 20.6 ESE 24 35 13 19 1009.5 1008.0 -
08/12:30pm 41.3 36.3 3.6 10 20.5 ESE 19 33 10 18 1009.6 1008.1 -
08/12:00pm 40.9 34.9 3.3 10 20.4 E 24 39 13 21 1010.1 1008.6 -
08/11:30am 40.8 36.0 5.8 12 19.7 ENE 20 35 11 19 1010.5 1009.0 -
08/11:00am 40.1 34.7 6.4 13 19.0 ENE 24 37 13 20 1010.7 1009.2 -
08/10:30am 39.5 35.0 7.1 14 18.4 ESE 20 33 11 18 1010.9 1009.4 -
08/10:00am 38.7 35.2 7.4 15 17.8 ESE 15 24 8 13 1011.3 1009.8 -
08/09:30am 37.6 34.6 7.5 16 17.1 ESE 13 20 7 11 1011.4 1009.9 -
08/09:00am 36.0 32.1 7.1 17 16.2 ESE 17 24 9 13 1011.6 1010.1 -
08/08:30am 35.1 30.8 7.2 18 15.6 SE 19 28 10 15 1011.6 1010.1 -
08/08:00am 34.5 32.2 10.4 23 14.1 SE 13 20 7 11 1011.6 1010.1 -
08/07:30am 31.8 32.9 15.7 37 10.1 SSE 4 9 2 5 1011.2 1009.7 -
08/07:00am 28.8 31.6 18.0 52 6.9 CALM 0 4 0 2 1011.2 1009.7 -
08/06:30am 25.9 28.0 18.1 62 5.0 SW 4 7 2 4 1011.1 1009.6 -
08/06:00am 24.2 25.8 17.9 68 4.0 SW 6 9 3 5 1010.9 1009.4 -
08/05:30am 24.9 26.6 18.1 66 4.3 SW 6 7 3 4 1010.7 1009.2 -
08/05:00am 24.5 27.8 19.1 72 3.5 CALM 0 0 0 0 1010.5 1009.0 -
08/04:30am 24.8 27.9 18.7 69 3.9 CALM 0 0 0 0 1010.3 1008.8 -
08/04:00am 25.3 28.0 18.7 67 4.2 S 2 2 1 1 1010.2 1008.7 -
08/03:30am 25.4 28.7 19.1 68 4.1 CALM 0 0 0 0 1010.1 1008.6 -
08/03:00am 25.8 28.9 18.7 65 4.6 CALM 0 0 0 0 1010.2 1008.7 -
08/02:30am 26.5 29.1 18.4 61 5.2 ENE 2 6 1 3 1010.3 1008.8 -
08/02:00am 27.0 29.8 18.0 58 5.7 CALM 0 0 0 0 1010.3 1008.8 -
08/01:30am 27.9 30.7 18.0 55 6.3 CALM 0 0 0 0 1010.4 1008.9 -
08/01:00am 27.9 30.7 18.0 55 6.3 CALM 0 2 0 1 1010.7 1009.2 -
08/12:30am 28.6 31.3 17.8 52 6.9 CALM 0 0 0 0 1011.1 1009.6 -
08/12:00am 30.0 31.6 16.8 45 8.4 SE 4 6 2 3 1011.4 1009.9 -
 
Date/Time
WST
Temp
°C
App
Temp
°C
Dew
Point
Rel
Hum
%
Delta-T
°C
Wind Press
QNH
hPa
Press
MSL
hPa
Rain
since 9 am
mm
Dir
 
Spd
km/h
Gust
km/h
Spd
kts
Gust
kts
07/11:30pm 30.5 31.9 15.4 40 9.4 ESE 2 6 1 3 1011.6 1010.1 -
07/11:00pm 30.5 31.6 14.6 38 9.8 ENE 2 6 1 3 1011.7 1010.2 -
07/10:30pm 32.2 32.5 13.4 32 11.4 NE 4 4 2 2 1011.3 1009.8 -
07/10:00pm 32.4 32.6 13.1 31 11.7 NW 4 6 2 3 1011.1 1009.6 -
07/09:30pm 33.2 33.1 13.3 30 12.1 NNW 6 7 3 4 1010.9 1009.4 -
07/09:00pm 34.3 33.8 13.7 29 12.7 NNW 9 13 5 7 1010.3 1008.8 -
07/08:30pm 34.8 33.6 14.1 28 12.8 N 13 17 7 9 1009.9 1008.4 -
07/08:00pm 35.6 34.3 13.7 27 13.5 N 13 20 7 11 1009.4 1007.9 -
07/07:30pm 36.4 34.6 13.2 25 14.2 N 15 19 8 10 1008.8 1007.3 -
07/07:00pm 38.2 35.7 5.0 13 18.2 SE 7 13 4 7 1008.2 1006.6 -
07/06:30pm 39.6 35.4 3.7 11 19.4 SE 15 20 8 11 1007.6 1006.0 -
07/06:00pm 40.1 36.7 4.0 11 19.7 ESE 11 17 6 9 1007.3 1005.7 -
07/05:30pm 40.8 37.6 3.2 10 20.3 ESE 9 19 5 10 1007.0 1005.4 -
07/05:00pm 41.2 37.7 3.5 10 20.6 E 11 17 6 9 1006.9 1005.3 -
07/04:30pm 41.2 38.7 3.5 10 20.5 E 6 9 3 5 1006.8 1005.2 -
07/04:00pm 41.2 37.3 3.5 10 20.6 ENE 13 22 7 12 1006.8 1005.2 -
07/03:30pm 41.2 37.7 3.5 10 20.5 E 11 24 6 13 1006.9 1005.3 -
07/03:00pm 41.3 38.8 4.9 11 20.3 SSE 7 20 4 11 1007.1 1005.5 -
07/02:30pm 41.6 37.3 5.2 11 20.3 ESE 17 30 9 16 1007.4 1005.8 -
07/02:00pm 41.0 38.5 4.7 11 20.1 E 7 17 4 9 1007.7 1006.1 -
07/01:30pm 40.6 37.0 3.1 10 20.2 ENE 11 17 6 9 1008.0 1006.4 -
07/01:00pm 41.2 38.9 4.9 11 20.2 ENE 6 11 3 6 1008.3 1006.7 -
07/12:30pm 40.4 36.8 2.9 10 20.1 ESE 11 19 6 10 1008.6 1007.0 -
07/12:00pm 40.1 35.9 4.0 11 19.7 E 15 24 8 13 1009.1 1007.6 -
07/11:30am 39.3 36.2 3.4 11 19.3 E 9 17 5 9 1009.6 1008.1 -
07/11:00am 39.2 35.7 3.4 11 19.3 E 11 26 6 14 1009.9 1008.4 -
07/10:30am 38.0 33.8 3.7 12 18.4 ESE 15 24 8 13 1010.1 1008.6 -
07/10:00am 37.6 34.3 4.5 13 18.0 ESE 11 17 6 9 1010.3 1008.8 -
07/09:30am 36.8 33.6 4.9 14 17.3 SE 11 19 6 10 1010.6 1009.1 -
07/09:00am 36.0 31.5 4.3 14 17.0 SE 17 22 9 12 1010.6 1009.1 -
07/08:30am 34.7 29.6 4.3 15 16.2 ESE 20 30 11 16 1010.5 1009.0 -
07/08:00am 33.7 30.2 5.3 17 15.3 SSE 13 19 7 10 1010.4 1008.9 -
07/07:30am 31.4 29.9 8.4 24 12.9 S 6 9 3 5 1010.1 1008.6 -
07/07:00am 28.3 27.5 11.8 36 9.6 SW 7 11 4 6 1010.0 1008.5 -
07/06:30am 25.3 25.8 14.1 50 6.7 SW 4 6 2 3 1009.9 1008.4 -
07/06:00am 23.6 24.2 14.3 56 5.5 S 4 7 2 4 1009.6 1008.1 -
07/05:30am 23.2 24.8 15.0 60 4.9 CALM 0 2 0 1 1009.4 1007.9 -
07/05:00am 23.7 25.1 14.4 56 5.5 CALM 0 0 0 0 1009.2 1007.7 -
07/04:30am 24.7 25.6 13.0 48 6.8 CALM 0 0 0 0 1009.0 1007.5 -
07/04:00am 25.2 26.1 12.8 46 7.2 CALM 0 0 0 0 1008.7 1007.2 -
07/03:30am 25.5 26.3 12.7 45 7.5 CALM 0 4 0 2 1008.7 1007.2 -
07/03:00am 26.0 26.6 13.2 45 7.6 NNE 2 6 1 3 1008.6 1007.0 -
07/02:30am 26.7 26.1 12.4 41 8.3 NNW 7 9 4 5 1008.4 1006.8 -
07/02:00am 27.5 26.3 11.5 37 9.3 N 9 13 5 7 1008.4 1006.8 -
07/01:30am 29.5 28.3 9.6 29 11.2 SE 6 9 3 5 1008.4 1006.8 -
07/01:00am 30.6 28.3 8.9 26 12.2 SE 11 13 6 7 1008.4 1006.8 -
07/12:30am 31.5 29.1 8.5 24 12.9 SE 11 15 6 8 1008.5 1006.9 -
07/12:00am 31.9 29.4 8.2 23 13.3 SE 11 15 6 8 1008.8 1007.3 -
 
Date/Time
WST
Temp
°C
App
Temp
°C
Dew
Point
Rel
Hum
%
Delta-T
°C
Wind Press
QNH
hPa
Press
MSL
hPa
Rain
since 9 am
mm
Dir
 
Spd
km/h
Gust
km/h
Spd
kts
Gust
kts
06/11:30pm 32.6 29.7 8.1 22 13.7 SE 13 19 7 10 1009.0 1007.5 -
06/11:00pm 32.8 29.8 7.6 21 14.0 SE 13 17 7 9 1009.1 1007.6 -
06/10:30pm 33.4 29.9 7.4 20 14.4 SE 15 20 8 11 1009.2 1007.7 -
06/10:00pm 33.8 30.1 6.2 18 15.1 SSE 15 22 8 12 1009.1 1007.6 -
06/09:30pm 34.4 30.2 5.8 17 15.6 SSE 17 22 9 12 1008.9 1007.4 -
06/09:00pm 34.4 31.2 6.7 18 15.3 SSE 13 17 7 9 1008.5 1006.9 -
06/08:30pm 34.5 31.5 5.9 17 15.6 SSE 11 13 6 7 1008.2 1006.6 -
06/08:00pm 34.3 32.2 8.1 20 14.8 SE 9 11 5 6 1007.8 1006.2 -
06/07:30pm 35.5 32.8 5.8 16 16.3 SE 9 13 5 7 1007.6 1006.0 -
06/07:00pm 37.0 33.4 5.1 14 17.4 SE 13 15 7 8 1007.2 1005.6 -
06/06:30pm 38.2 33.8 5.0 13 18.2 SE 17 22 9 12 1006.8 1005.2 -
06/06:00pm 39.0 35.3 4.4 12 18.9 SSE 13 24 7 13 1006.5 1004.9 -
06/05:30pm 39.5 35.5 4.8 12 19.1 SSE 15 28 8 15 1006.3 1004.7 -
06/05:00pm 40.0 36.8 5.2 12 19.3 S 11 37 6 20 1006.1 1004.6 -
06/04:30pm 39.9 35.8 6.3 13 18.9 SSE 17 26 9 14 1006.1 1004.6 -
06/04:00pm 40.0 36.7 6.4 13 19.0 SSE 13 22 7 12 1006.3 1004.7 -
06/03:30pm 40.4 36.0 6.7 13 19.1 SSW 19 32 10 17 1006.5 1004.9 -
06/03:00pm 40.1 38.2 7.5 14 18.8 S 7 22 4 12 1006.7 1005.1 -
06/02:30pm 40.1 37.1 7.5 14 18.7 S 13 24 7 13 1007.0 1005.4 -
06/02:00pm 39.6 36.7 8.1 15 18.2 S 13 30 7 16 1007.3 1005.7 -
06/01:30pm 39.7 36.8 8.2 15 18.2 SE 13 24 7 13 1007.7 1006.1 -
06/01:00pm 38.9 35.7 8.5 16 17.6 SSE 15 26 8 14 1008.2 1006.6 -
06/12:30pm 38.9 36.5 8.5 16 17.6 ESE 11 28 6 15 1008.7 1007.2 -
06/12:00pm 38.2 35.7 8.0 16 17.3 ESE 11 22 6 12 1009.1 1007.6 -
06/11:30am 37.3 34.0 8.2 17 16.7 E 15 24 8 13 1009.6 1008.1 -
06/11:00am 37.4 33.8 8.2 17 16.7 E 17 24 9 13 1010.0 1008.5 -
06/10:30am 36.3 32.9 9.0 19 15.8 E 17 28 9 15 1010.4 1008.9 -
06/10:00am 36.1 33.2 11.0 22 14.9 E 17 24 9 13 1010.6 1009.1 -
06/09:30am 35.0 32.2 12.6 26 13.6 E 19 24 10 13 1010.8 1009.3 -
06/09:00am 34.6 32.3 14.0 29 12.7 E 19 28 10 15 1010.9 1009.4 -
06/08:30am 33.9 32.2 15.8 33 11.4 ESE 19 26 10 14 1010.7 1009.2 -
06/08:00am 32.7 33.0 18.8 43 9.1 ESE 15 24 8 13 1010.5 1009.0 -
06/07:30am 30.4 33.3 21.8 60 5.8 SE 9 15 5 8 1010.4 1008.9 -
06/07:00am 29.2 31.8 21.9 64 5.0 ESE 11 15 6 8 1010.3 1008.8 -
06/06:30am 28.4 31.5 22.2 69 4.2 ESE 9 11 5 6 1010.0 1008.5 -
06/06:00am 27.0 30.4 21.7 73 3.6 E 6 7 3 4 1009.5 1008.0 -
06/05:30am 27.0 30.1 21.5 72 3.7 E 7 9 4 5 1009.1 1007.6 -
06/05:00am 27.1 30.8 21.4 71 3.8 E 4 4 2 2 1008.8 1007.3 -
06/04:30am 27.4 31.1 21.4 70 4.0 ESE 4 7 2 4 1008.5 1006.9 -
06/04:00am 27.4 30.8 21.7 71 3.8 SSE 6 6 3 3 1008.3 1006.7 -
06/03:30am 27.4 31.8 21.4 70 4.0 CALM 0 0 0 0 1008.2 1006.6 -
06/03:00am 28.0 32.0 20.6 64 4.9 CALM 0 0 0 0 1008.1 1006.5 -
06/02:30am 28.4 31.2 20.4 62 5.3 NE 6 7 3 4 1008.2 1006.6 -
06/02:00am 28.8 32.3 20.3 60 5.6 E 2 4 1 2 1008.2 1006.6 -
06/01:30am 29.9 32.1 19.3 53 6.9 ENE 6 7 3 4 1008.3 1006.7 -
06/01:00am 30.1 32.8 19.5 53 7.0 E 4 6 2 3 1008.5 1006.9 -
06/12:30am 30.8 34.6 20.1 53 7.1 CALM 0 0 0 0 1008.6 1007.0 -
06/12:00am 31.4 34.0 18.4 46 8.5 NNW 2 4 1 2 1008.7 1007.2 -
 
Date/Time
WST
Temp
°C
App
Temp
°C
Dew
Point
Rel
Hum
%
Delta-T
°C
Wind Press
QNH
hPa
Press
MSL
hPa
Rain
since 9 am
mm
Dir
 
Spd
km/h
Gust
km/h
Spd
kts
Gust
kts
05/11:30pm 31.9 33.6 18.5 45 8.7 WNW 7 9 4 5 1009.1 1007.6 -
05/11:00pm 31.9 33.7 18.8 45 8.6 NW 7 9 4 5 1009.3 1007.8 -
05/10:30pm 31.8 33.7 19.8 49 8.0 NNW 9 15 5 8 1009.2 1007.7 -
05/10:00pm 32.1 34.1 20.7 51 7.7 N 11 15 6 8 1008.9 1007.4 -
05/09:30pm 32.9 34.7 20.4 47 8.4 N 11 17 6 9 1008.6 1007.0 -
05/09:00pm 33.9 34.8 19.2 42 9.7 NNE 13 20 7 11 1008.2 1006.6 -
05/08:30pm 34.5 34.8 14.9 31 12.2 SE 7 9 4 5 1007.6 1006.0 -
05/08:00pm 34.7 35.2 15.1 31 12.3 SE 6 9 3 5 1007.2 1005.6 -
05/07:30pm 36.0 35.6 14.1 27 13.6 ESE 9 11 5 6 1006.9 1005.3 -
05/07:00pm 36.9 35.4 13.0 24 14.7 ESE 13 19 7 10 1006.4 1004.8 -
05/06:30pm 37.8 35.7 12.4 22 15.5 ESE 15 20 8 11 1006.0 1004.5 -
05/06:00pm 38.7 37.0 12.5 21 16.1 ESE 13 24 7 13 1005.8 1004.3 -

Other Formats:

Comma delimited format used in spreadsheet applications
http://www.bom.gov.au/fwo/IDW60801/IDW60801.95317.axf

JavaScript Object Notation format (JSON) in row-major order
http://www.bom.gov.au/fwo/IDW60801/IDW60801.95317.json